createdAt,value
2023-01-11T00:02:03.165Z,7.70
2023-01-11T00:04:30.819Z,7.78
2023-01-11T00:06:58.443Z,7.87
2023-01-11T00:09:25.448Z,7.97
2023-01-11T00:11:52.361Z,8.05
2023-01-11T00:14:19.213Z,7.93
2023-01-11T00:16:46.073Z,7.74
2023-01-11T00:19:13.172Z,7.65
2023-01-11T00:21:40.045Z,7.58
2023-01-11T00:24:06.957Z,7.59
2023-01-11T00:26:33.831Z,7.60
2023-01-11T00:29:00.680Z,7.67
2023-01-11T00:31:27.557Z,7.72
2023-01-11T00:33:55.232Z,7.69
2023-01-11T00:36:22.044Z,7.63
2023-01-11T00:38:53.980Z,7.65
2023-01-11T00:41:41.468Z,7.71
2023-01-11T00:44:29.903Z,7.83
2023-01-11T00:47:16.312Z,7.83
2023-01-11T00:49:44.183Z,7.89
2023-01-11T00:52:11.192Z,8.04
2023-01-11T00:54:42.467Z,8.24
2023-01-11T00:57:09.863Z,8.24
2023-01-11T00:59:39.639Z,8.27
2023-01-11T01:02:06.729Z,8.35
2023-01-11T01:04:33.938Z,8.34
2023-01-11T01:07:01.131Z,8.46
2023-01-11T01:09:28.560Z,8.58
2023-01-11T01:11:55.429Z,8.63
2023-01-11T01:14:30.040Z,8.59
2023-01-11T01:17:08.503Z,8.50
2023-01-11T01:19:38.204Z,8.45
2023-01-11T01:22:05.465Z,8.46
2023-01-11T01:24:33.368Z,8.47
2023-01-11T01:27:00.424Z,8.54
2023-01-11T01:29:27.492Z,8.39
2023-01-11T01:31:54.555Z,8.15
2023-01-11T01:34:21.384Z,8.01
2023-01-11T01:36:48.258Z,7.87
2023-01-11T01:39:15.484Z,7.69
2023-01-11T01:41:42.485Z,7.57
2023-01-11T01:44:47.316Z,7.47
2023-01-11T01:47:14.983Z,7.43
2023-01-11T01:49:44.500Z,7.52
2023-01-11T01:52:12.647Z,7.59
2023-01-11T01:54:44.460Z,7.48
2023-01-11T01:57:17.678Z,7.50
2023-01-11T01:59:46.016Z,7.67
2023-01-11T02:02:13.005Z,7.77
2023-01-11T02:04:43.010Z,7.72
2023-01-11T02:07:22.957Z,7.73
2023-01-11T02:10:12.739Z,7.65
2023-01-11T02:12:50.417Z,7.68
2023-01-11T02:15:19.941Z,7.79
2023-01-11T02:17:46.790Z,7.76
2023-01-11T02:20:32.293Z,7.75
2023-01-11T02:23:23.843Z,7.79
2023-01-11T02:26:12.636Z,7.71
2023-01-11T02:28:45.515Z,7.78
2023-01-11T02:31:21.736Z,7.77
2023-01-11T02:33:58.421Z,7.70
2023-01-11T02:36:49.618Z,7.66
2023-01-11T02:39:28.171Z,7.64
2023-01-11T02:42:40.019Z,7.75
2023-01-11T02:45:25.079Z,7.88
2023-01-11T02:48:07.298Z,7.88
2023-01-11T02:51:02.276Z,7.67
2023-01-11T02:53:47.836Z,7.62
2023-01-11T02:56:21.633Z,7.61
2023-01-11T02:58:51.412Z,7.69
2023-01-11T03:01:19.874Z,7.76
2023-01-11T03:05:11.629Z,7.81
2023-01-11T03:07:46.498Z,7.92
2023-01-11T03:10:37.503Z,8.02
2023-01-11T03:13:16.417Z,8.02
2023-01-11T03:19:22.084Z,7.92
2023-01-11T03:21:57.719Z,7.85
2023-01-11T03:24:38.341Z,7.77
2023-01-11T03:27:19.883Z,7.75
2023-01-11T03:29:58.773Z,7.73
2023-01-11T03:32:44.937Z,7.80
2023-01-11T03:35:19.597Z,7.87
2023-01-11T03:37:55.630Z,7.84
2023-01-11T03:40:43.173Z,7.81
2023-01-11T03:43:14.138Z,7.88
2023-01-11T03:45:50.869Z,7.86
2023-01-11T03:48:22.255Z,7.68
2023-01-11T03:50:52.478Z,7.55
2023-01-11T03:53:23.239Z,7.47
2023-01-11T03:55:56.142Z,7.42
2023-01-11T03:58:27.132Z,7.55
2023-01-11T04:00:58.241Z,7.41
2023-01-11T04:03:27.140Z,7.41
2023-01-11T04:06:01.369Z,7.42
2023-01-11T04:08:28.702Z,7.44
2023-01-11T04:10:56.113Z,7.48
2023-01-11T04:13:23.055Z,7.53
2023-01-11T04:15:49.873Z,7.58
2023-01-11T04:18:16.709Z,7.57
2023-01-11T04:20:43.523Z,7.57
2023-01-11T04:23:10.572Z,7.62
2023-01-11T04:25:37.482Z,7.61
2023-01-11T04:28:04.403Z,7.65
2023-01-11T04:30:31.233Z,7.68
2023-01-11T04:33:00.935Z,7.58
2023-01-11T04:35:27.869Z,7.51
2023-01-11T04:37:58.043Z,7.42
2023-01-11T04:40:25.567Z,7.38
2023-01-11T04:42:52.422Z,7.33
2023-01-11T04:45:19.484Z,7.29
2023-01-11T04:47:46.321Z,7.32
2023-01-11T04:50:13.313Z,7.26
2023-01-11T04:52:41.904Z,7.23
2023-01-11T04:55:09.510Z,7.22
2023-01-11T04:57:36.868Z,7.17
2023-01-11T05:00:10.996Z,7.15
2023-01-11T05:02:41.361Z,7.11
2023-01-11T05:07:54.975Z,7.08
2023-01-11T05:10:21.917Z,7.06
2023-01-11T05:12:48.805Z,7.04
2023-01-11T05:15:15.621Z,7.11
2023-01-11T05:17:42.478Z,7.01
2023-01-11T05:20:12.582Z,7.00
2023-01-11T05:22:39.735Z,7.00
2023-01-11T05:25:07.142Z,7.02
2023-01-11T05:27:33.963Z,7.07
2023-01-11T05:30:00.785Z,7.24
2023-01-11T05:32:27.661Z,7.26
2023-01-11T05:34:54.462Z,7.25
2023-01-11T05:37:21.232Z,7.20
2023-01-11T05:39:48.039Z,6.95
2023-01-11T05:42:15.089Z,6.78
2023-01-11T05:45:08.078Z,6.64
2023-01-11T05:47:34.915Z,6.64
2023-01-11T05:50:01.748Z,6.70
2023-01-11T05:52:28.634Z,6.84
2023-01-11T05:54:55.544Z,6.91
2023-01-11T05:57:22.407Z,6.88
2023-01-11T05:59:49.291Z,6.83
2023-01-11T06:02:16.218Z,6.96
2023-01-11T06:04:43.061Z,6.94
2023-01-11T06:07:10.289Z,6.90
2023-01-11T06:09:37.147Z,6.86
2023-01-11T06:12:04.066Z,6.77
2023-01-11T06:14:30.943Z,6.66
2023-01-11T06:16:57.841Z,6.67
2023-01-11T06:19:24.945Z,6.70
2023-01-11T06:21:51.794Z,6.75
2023-01-11T06:24:18.661Z,6.81
2023-01-11T06:26:45.486Z,6.85
2023-01-11T06:29:12.729Z,6.93
2023-01-11T06:31:39.696Z,7.04
2023-01-11T06:34:06.650Z,7.00
2023-01-11T06:36:33.540Z,7.02
2023-01-11T06:39:00.403Z,6.85
2023-01-11T06:41:28.990Z,6.69
2023-01-11T06:43:55.998Z,6.68
2023-01-11T06:46:23.092Z,6.66
2023-01-11T06:48:49.958Z,6.61
2023-01-11T06:51:17.148Z,6.48
2023-01-11T06:53:44.191Z,6.59
2023-01-11T06:56:17.695Z,6.43
2023-01-11T06:58:46.926Z,6.36
2023-01-11T07:01:13.916Z,6.45
2023-01-11T07:03:41.902Z,6.40
2023-01-11T07:06:08.859Z,6.54
2023-01-11T07:08:35.716Z,6.62
2023-01-11T07:11:02.604Z,6.66
2023-01-11T07:13:29.792Z,6.71
2023-01-11T07:15:57.778Z,6.81
2023-01-11T07:18:24.829Z,6.64
2023-01-11T07:20:52.256Z,6.61
2023-01-11T07:23:19.587Z,6.54
2023-01-11T07:25:48.792Z,6.53
2023-01-11T07:28:15.679Z,6.52
2023-01-11T07:30:56.847Z,6.58
2023-01-11T07:33:26.082Z,6.39
2023-01-11T07:35:53.038Z,6.42
2023-01-11T07:38:19.929Z,6.44
2023-01-11T07:40:47.055Z,6.49
2023-01-11T07:43:19.856Z,6.63
2023-01-11T07:45:51.901Z,6.71
2023-01-11T07:48:25.285Z,6.61
2023-01-11T07:50:53.502Z,6.69
2023-01-11T07:53:21.682Z,6.71
2023-01-11T07:55:48.797Z,6.84
2023-01-11T07:58:16.079Z,6.93
2023-01-11T08:00:43.324Z,7.03
2023-01-11T08:03:10.566Z,6.85
2023-01-11T08:05:38.065Z,6.65
2023-01-11T08:08:05.765Z,6.64
2023-01-11T08:10:33.666Z,6.69
2023-01-11T08:13:19.622Z,6.72
2023-01-11T08:15:46.651Z,6.89
2023-01-11T08:18:13.625Z,6.91
2023-01-11T08:20:41.062Z,7.02
2023-01-11T08:23:12.281Z,7.23
2023-01-11T08:25:39.312Z,7.23
2023-01-11T08:28:07.723Z,7.37
2023-01-11T08:30:36.298Z,7.29
2023-01-11T08:33:05.048Z,7.22
2023-01-11T08:35:36.995Z,7.32
2023-01-11T08:38:04.273Z,7.31
2023-01-11T08:40:31.230Z,7.28
2023-01-11T08:42:58.458Z,7.38
2023-01-11T08:45:26.107Z,7.52
2023-01-11T08:47:53.825Z,7.40
2023-01-11T08:50:22.548Z,7.50
2023-01-11T08:52:51.547Z,7.59
2023-01-11T08:55:21.782Z,7.90
2023-01-11T09:00:33.542Z,7.75
2023-01-11T09:03:01.671Z,7.82
2023-01-11T09:05:29.065Z,7.94
2023-01-11T09:07:56.331Z,7.90
2023-01-11T09:10:27.445Z,7.79
2023-01-11T09:12:54.645Z,7.53
2023-01-11T09:15:22.294Z,7.44
2023-01-11T09:17:52.505Z,7.26
2023-01-11T09:20:21.206Z,7.31
2023-01-11T09:22:52.671Z,7.37
2023-01-11T09:25:20.963Z,7.41
2023-01-11T09:27:50.709Z,7.41
2023-01-11T09:30:20.809Z,7.32
2023-01-11T09:32:48.760Z,7.24
2023-01-11T09:35:17.116Z,7.35
2023-01-11T09:37:56.470Z,7.43
2023-01-11T09:41:00.031Z,7.59
2023-01-11T09:43:29.666Z,7.60
2023-01-11T09:46:01.245Z,7.60
2023-01-11T09:48:38.331Z,7.59
2023-01-11T09:51:06.493Z,7.82
2023-01-11T09:53:38.242Z,8.00
2023-01-11T09:56:12.380Z,7.80
2023-01-11T09:58:59.900Z,7.87
2023-01-11T10:02:25.483Z,8.04
2023-01-11T10:05:32.138Z,8.20
2023-01-11T10:18:27.369Z,8.05
2023-01-11T10:18:33.760Z,8.09
2023-01-11T10:21:00.495Z,8.24
2023-01-11T10:23:41.156Z,8.41
2023-01-11T10:26:24.521Z,8.50
2023-01-11T10:29:17.257Z,8.61
2023-01-11T10:32:03.012Z,8.66
2023-01-11T10:34:34.875Z,8.70
2023-01-11T10:37:48.232Z,8.66
2023-01-11T10:40:35.194Z,8.71
2023-01-11T10:43:18.295Z,8.76
2023-01-11T10:45:52.207Z,8.93
2023-01-11T10:48:37.923Z,8.86
2023-01-11T10:51:20.075Z,8.81
2023-01-11T10:53:50.419Z,8.78
2023-01-11T10:56:42.986Z,8.88
2023-01-11T10:59:43.870Z,9.08
2023-01-11T11:02:41.508Z,8.97
2023-01-11T11:05:30.572Z,8.93
2023-01-11T11:08:14.691Z,8.93
2023-01-11T11:10:54.267Z,8.73
2023-01-11T11:13:41.317Z,8.72
2023-01-11T11:16:19.388Z,8.74
2023-01-11T11:18:46.827Z,8.61
2023-01-11T11:21:29.387Z,8.75
2023-01-11T11:24:02.212Z,8.82
2023-01-11T11:26:41.508Z,8.75
2023-01-11T11:29:11.716Z,8.83
2023-01-11T11:31:44.165Z,8.96
2023-01-11T11:34:22.417Z,8.98
2023-01-11T11:36:52.514Z,8.97
2023-01-11T11:39:29.367Z,9.25
2023-01-11T11:42:07.892Z,9.23
2023-01-11T11:44:35.682Z,9.24
2023-01-11T11:47:17.017Z,9.39
2023-01-11T11:49:44.585Z,9.51
2023-01-11T11:52:15.221Z,9.66
2023-01-11T11:54:51.984Z,9.81
2023-01-11T11:57:28.329Z,9.91
2023-01-11T12:00:05.674Z,10.06
2023-01-11T12:02:36.044Z,10.01
2023-01-11T12:05:09.719Z,10.08
2023-01-11T12:07:54.287Z,10.24
2023-01-11T12:10:25.252Z,10.29
2023-01-11T12:12:57.000Z,10.21
2023-01-11T12:15:37.678Z,10.23
2023-01-11T12:18:26.338Z,10.22
2023-01-11T12:20:54.111Z,10.48
2023-01-11T12:23:24.418Z,10.39
2023-01-11T13:14:02.260Z,7.69
2023-01-11T13:16:47.873Z,8.21
2023-01-11T13:19:42.708Z,8.50
2023-01-11T13:22:17.227Z,8.90
2023-01-11T13:24:48.963Z,9.32
2023-01-11T13:27:22.719Z,9.45
2023-01-11T13:29:56.108Z,9.45
2023-01-11T13:32:26.437Z,9.90
2023-01-11T13:35:00.185Z,9.99
2023-01-11T13:37:45.139Z,9.79
2023-01-11T13:40:30.822Z,9.55
2023-01-11T13:43:10.450Z,9.72
2023-01-11T13:45:44.227Z,10.02
2023-01-11T13:48:31.600Z,9.77
2023-01-11T13:51:29.022Z,9.54
2023-01-11T13:54:01.949Z,9.62
2023-01-11T13:56:36.519Z,9.75
2023-01-11T13:59:46.716Z,9.71
2023-01-11T14:02:19.497Z,9.50
2023-01-11T14:04:59.141Z,9.38
2023-01-11T14:07:56.073Z,9.51
2023-01-11T14:10:56.644Z,9.41
2023-01-11T14:14:07.659Z,9.41
2023-01-11T14:17:12.982Z,9.10
2023-01-11T14:20:17.684Z,9.28
2023-01-11T14:23:06.239Z,9.20
2023-01-11T14:25:33.184Z,9.21
2023-01-11T14:28:19.468Z,9.13
2023-01-11T14:31:27.588Z,8.97
2023-01-11T14:34:28.078Z,9.04
2023-01-11T14:37:26.249Z,8.85
2023-01-11T14:40:04.034Z,8.88
2023-01-11T14:42:34.353Z,8.99
2023-01-11T14:45:32.426Z,8.93
2023-01-11T14:47:59.577Z,8.79
2023-01-11T14:50:42.603Z,8.80
2023-01-11T14:53:17.323Z,8.85
2023-01-11T14:55:49.394Z,8.92
2023-01-11T14:58:19.849Z,8.84
2023-01-11T15:00:46.767Z,8.80
2023-01-11T15:03:18.529Z,8.95
2023-01-11T15:05:47.433Z,8.87
2023-01-11T15:08:14.270Z,8.98
2023-01-11T15:10:56.573Z,9.00
2023-01-11T15:13:49.931Z,8.84
2023-01-11T15:16:41.129Z,8.81
2023-01-11T15:19:36.132Z,8.78
2023-01-11T15:22:06.229Z,8.49
2023-01-11T15:24:35.844Z,8.49
2023-01-11T15:27:03.458Z,8.69
2023-01-11T15:29:32.624Z,8.76
2023-01-11T15:32:02.640Z,8.65
2023-01-11T15:34:32.775Z,8.77
2023-01-11T15:37:03.713Z,8.71
2023-01-11T15:39:52.465Z,8.80
2023-01-11T15:42:40.991Z,8.87
2023-01-11T15:45:24.009Z,8.86
2023-01-11T15:48:17.981Z,8.92
2023-01-11T15:50:51.179Z,8.88
2023-01-11T15:53:46.603Z,8.84
2023-01-11T15:56:45.754Z,8.88
2023-01-11T15:59:27.250Z,9.02
2023-01-11T16:02:03.199Z,8.91
2023-01-11T16:04:55.830Z,8.85
2023-01-11T16:07:40.706Z,8.98
2023-01-11T16:10:29.740Z,9.00
2023-01-11T16:13:27.604Z,8.86
2023-01-11T16:16:13.517Z,8.99
2023-01-11T16:18:46.480Z,8.92
2023-01-11T16:21:23.762Z,9.02
2023-01-11T16:23:50.805Z,9.00
2023-01-11T16:26:20.415Z,9.09
2023-01-11T16:28:52.397Z,8.97
2023-01-11T16:31:19.833Z,8.90
2023-01-11T16:33:49.594Z,8.92
2023-01-11T16:36:21.305Z,8.92
2023-01-11T16:38:54.530Z,8.89
2023-01-11T16:41:23.823Z,8.80
2023-01-11T16:44:02.543Z,8.79
2023-01-11T16:46:47.546Z,8.93
2023-01-11T16:49:19.944Z,8.83
2023-01-11T16:51:49.237Z,8.80
2023-01-11T16:54:25.440Z,8.84
2023-01-11T16:56:52.992Z,8.77
2023-01-11T16:59:27.408Z,8.68
2023-01-11T17:01:56.767Z,8.60
2023-01-11T17:04:30.443Z,8.54
2023-01-11T17:07:13.156Z,8.62
2023-01-11T17:09:43.715Z,8.71
2023-01-11T17:12:17.202Z,8.85
2023-01-11T17:14:50.542Z,8.85
2023-01-11T17:17:18.155Z,8.94
2023-01-11T17:19:50.882Z,8.87
2023-01-11T17:22:31.912Z,8.89
2023-01-11T17:25:21.866Z,8.96
2023-01-11T17:27:51.169Z,8.98
2023-01-11T17:30:24.973Z,8.90
2023-01-11T17:32:55.116Z,8.93
2023-01-11T17:35:31.272Z,9.14
2023-01-11T17:38:02.419Z,9.13
2023-01-11T17:40:40.444Z,9.07
2023-01-11T17:43:38.988Z,9.17
2023-01-11T17:46:07.769Z,9.07
2023-01-11T17:48:35.546Z,9.18
2023-01-11T17:51:04.243Z,9.13
2023-01-11T17:53:33.029Z,9.22
2023-01-11T17:56:04.186Z,9.19
2023-01-11T17:58:33.832Z,9.16
2023-01-11T18:01:22.604Z,9.19
2023-01-11T18:03:53.676Z,9.19
2023-01-11T18:06:42.229Z,9.23
2023-01-11T18:09:31.075Z,9.18
2023-01-11T18:12:21.762Z,9.28
2023-01-11T18:14:56.940Z,9.32
2023-01-11T18:17:35.460Z,9.38
2023-01-11T18:20:25.285Z,9.44
2023-01-11T18:23:13.727Z,9.32
2023-01-11T18:25:40.883Z,9.35
2023-01-11T18:28:28.637Z,9.28
2023-01-11T18:31:00.411Z,9.33
2023-01-11T18:33:32.275Z,9.42
2023-01-11T18:36:02.246Z,9.44
2023-01-11T18:38:30.967Z,9.48
2023-01-11T18:41:21.120Z,9.49
2023-01-11T18:43:48.074Z,9.50
2023-01-11T18:46:15.729Z,9.63
2023-01-11T18:48:43.822Z,9.55
2023-01-11T18:51:26.690Z,9.48
2023-01-11T18:53:53.578Z,9.38
2023-01-11T18:56:20.533Z,9.54
2023-01-11T18:58:47.493Z,9.52
2023-01-11T19:01:14.775Z,9.44
2023-01-11T19:03:43.751Z,9.52
2023-01-11T19:06:15.323Z,9.40
2023-01-11T19:08:43.065Z,9.48
2023-01-11T19:11:10.178Z,9.25
2023-01-11T19:13:37.379Z,9.34
2023-01-11T19:16:05.259Z,9.38
2023-01-11T19:18:35.317Z,9.39
2023-01-11T19:21:06.914Z,9.25
2023-01-11T19:23:34.585Z,9.11
2023-01-11T19:26:02.561Z,9.11
2023-01-11T19:28:30.738Z,9.06
2023-01-11T19:30:58.424Z,9.08
2023-01-11T19:33:25.976Z,8.98
2023-01-11T19:35:53.342Z,8.90
2023-01-11T19:38:20.806Z,8.95
2023-01-11T19:40:50.407Z,8.87
2023-01-11T19:43:17.869Z,8.76
2023-01-11T19:45:45.226Z,8.67
2023-01-11T19:48:12.809Z,8.80
2023-01-11T19:50:39.859Z,8.91
2023-01-11T19:53:07.209Z,8.86
2023-01-11T19:55:34.363Z,8.87
2023-01-11T19:58:02.950Z,8.84
2023-01-11T20:00:30.306Z,8.83
2023-01-11T20:02:57.741Z,9.12
2023-01-11T20:05:25.151Z,9.16
2023-01-11T20:07:54.227Z,9.20
2023-01-11T20:10:21.607Z,9.01
2023-01-11T20:12:48.848Z,8.83
2023-01-11T20:15:16.321Z,8.81
2023-01-11T20:17:43.878Z,9.00
2023-01-11T20:20:13.847Z,9.04
2023-01-11T20:22:46.387Z,8.98
2023-01-11T20:25:14.229Z,8.80
2023-01-11T20:27:41.399Z,8.71
2023-01-11T20:30:09.999Z,8.69
2023-01-11T20:32:41.959Z,8.77
2023-01-11T20:35:10.516Z,8.75
2023-01-11T20:37:37.696Z,8.66
2023-01-11T20:40:05.464Z,8.53
2023-01-11T20:42:32.522Z,8.63
2023-01-11T20:44:59.700Z,8.69
2023-01-11T20:47:27.462Z,8.72
2023-01-11T20:49:54.831Z,8.61
2023-01-11T20:52:22.364Z,8.66
2023-01-11T20:54:49.192Z,8.56
2023-01-11T20:57:16.167Z,8.42
2023-01-11T20:59:43.234Z,8.51
2023-01-11T21:02:11.695Z,8.51
2023-01-11T21:04:39.209Z,8.55
2023-01-11T21:07:06.725Z,8.59
2023-01-11T21:09:33.941Z,8.62
2023-01-11T21:12:01.139Z,8.59
2023-01-11T21:14:28.614Z,8.71
2023-01-11T21:16:56.091Z,8.64
2023-01-11T21:19:23.697Z,8.69
2023-01-11T21:21:51.419Z,8.85
2023-01-11T21:24:18.973Z,8.87
2023-01-11T21:26:48.148Z,8.84
2023-01-11T21:29:15.129Z,8.90
2023-01-11T21:31:43.057Z,9.01
2023-01-11T21:34:12.201Z,9.09
2023-01-11T21:36:39.892Z,9.01
2023-01-11T21:39:07.670Z,8.96
2023-01-11T21:41:53.311Z,8.90
2023-01-11T21:44:22.066Z,8.93
2023-01-11T21:46:50.327Z,8.95
2023-01-11T21:49:17.850Z,8.90
2023-01-11T21:51:45.209Z,8.93
2023-01-11T21:54:15.545Z,8.97
2023-01-11T21:56:42.914Z,9.02
2023-01-11T21:59:10.266Z,8.99
2023-01-11T22:01:39.687Z,8.97
2023-01-11T22:04:08.207Z,8.91
2023-01-11T22:06:37.266Z,8.98
2023-01-11T22:09:11.472Z,9.04
2023-01-11T22:11:39.723Z,9.02
2023-01-11T22:14:08.955Z,9.07
2023-01-11T22:16:37.697Z,9.10
2023-01-11T22:19:07.808Z,9.06
2023-01-11T22:21:36.363Z,9.06
2023-01-11T22:24:05.108Z,9.03
2023-01-11T22:26:35.183Z,9.17
2023-01-11T22:29:18.081Z,9.11
2023-01-11T22:31:51.734Z,9.06
2023-01-11T22:34:19.464Z,9.26
2023-01-11T22:36:47.476Z,9.20
2023-01-11T22:39:16.786Z,9.21
2023-01-11T22:41:45.886Z,9.20
2023-01-11T22:44:13.868Z,9.09
2023-01-11T22:46:41.368Z,8.95
2023-01-11T22:49:08.422Z,9.33
2023-01-11T22:51:36.113Z,9.38
2023-01-11T22:54:03.599Z,9.33
2023-01-11T22:56:31.105Z,9.11
2023-01-11T22:58:58.380Z,9.13
2023-01-11T23:01:31.118Z,9.19
2023-01-11T23:03:59.335Z,9.14
2023-01-11T23:06:29.670Z,9.24
2023-01-11T23:08:57.435Z,9.34
2023-01-11T23:11:51.081Z,9.38
2023-01-11T23:14:19.487Z,9.26
2023-01-11T23:16:48.265Z,9.39
2023-01-11T23:19:17.642Z,9.39
2023-01-11T23:21:46.452Z,9.38
2023-01-11T23:24:15.760Z,9.49
2023-01-11T23:26:43.688Z,9.38
2023-01-11T23:29:10.886Z,9.48
2023-01-11T23:31:38.093Z,9.54
2023-01-11T23:34:08.165Z,9.47
2023-01-11T23:36:37.816Z,9.47
2023-01-11T23:39:12.627Z,9.48
2023-01-11T23:41:58.394Z,9.50
2023-01-11T23:44:25.338Z,9.59
2023-01-11T23:47:11.155Z,9.70
2023-01-11T23:49:38.069Z,9.77
2023-01-11T23:52:06.048Z,9.76
2023-01-11T23:54:34.046Z,9.71
2023-01-11T23:57:02.831Z,9.79
2023-01-11T23:59:30.708Z,9.58
